Дата Пункты Температура Давл., мм. Влажн., % Ветер Погодные явления
Воздуха Воды Направл. Скорость
23.09.18 09:00 Одесса 13.0 20.0 762 81 З 2 21 ЧАС
23.09.18 06:00 Одесса 16.0 20.0 761 65 С 0 18 ЧАСОВ
23.09.18 03:00 Одесса 17.0 20.0 761 65 С 1 15 ЧАСОВ
23.09.18 12:00 Одесса 15.0 20.0 762 71 С-З 2 12 ЧАСОВ
23.09.18 09:00 Одесса 13.0 20.0 761 86 С-З 2 09 ЧАСОВ
23.09.18 06:00 Одесса 15.0 20.0 759 77 С-З 2 06 ЧАСОВ
23.09.18 03:00 Одесса 19.0 20.0 758 67 С-З 2 03 ЧАСА
22.09.18 09:00 Одесса 22.0 21.0 758 63 Ю-З 2 21 ЧАС
22.09.18 06:00 Одесса 23.0 21.0 758 58 Ю-З 2 18 ЧАСОВ
22.09.18 03:00 Одесса 24.0 21.0 759 68 Ю 4 15 ЧАСОВ
22.09.18 12:00 Одесса 24.0 21.0 760 49 Ю 3 12 ЧАСОВ
22.09.18 09:00 Одесса 22.0 21.0 760 50 С-В 1 09 ЧАСОВ
22.09.18 06:00 Одесса 16.0 21.0 760 82 С 0 06 ЧАСОВ
22.09.18 03:00 Одесса 18.0 21.0 760 55 З 2 03 ЧАСА
21.09.18 09:00 Одесса 20.0 21.0 761 56 З 2 21 ЧАС
21.09.18 06:00 Одесса 26.0 21.0 761 34 Ю 2 18 ЧАСОВ
21.09.18 03:00 Одесса 27.0 21.0 761 31 Ю 2 15 ЧАСОВ
21.09.18 12:00 Одесса 25.0 21.0 762 43 С-В 1 12 ЧАСОВ
21.09.18 09:00 Одесса 23.0 21.0 762 50 С-З 1 09 ЧАСОВ
21.09.18 06:00 Одесса 17.0 21.0 761 69 З 3 06 ЧАСОВ
Количество строк
1 2 3 4 5 6 7 8 9 10
Page 1 of 407